createdAt,value
2023-01-31T00:00:09.278Z,7.40
2023-01-31T00:03:00.659Z,8.10
2023-01-31T00:05:41.848Z,7.90
2023-01-31T00:08:16.954Z,9.70
2023-01-31T00:10:47.975Z,8.40
2023-01-31T00:13:22.181Z,7.80
2023-01-31T00:15:53.421Z,10.30
2023-01-31T00:18:24.854Z,8.30
2023-01-31T00:21:23.552Z,7.90
2023-01-31T00:23:55.939Z,9.10
2023-01-31T00:26:48.780Z,7.70
2023-01-31T00:29:40.223Z,8.70
2023-01-31T00:32:12.402Z,7.40
2023-01-31T00:34:43.427Z,7.60
2023-01-31T00:37:28.350Z,9.10
2023-01-31T00:40:25.349Z,8.40
2023-01-31T00:42:56.168Z,8.10
2023-01-31T00:45:27.130Z,7.20
2023-01-31T00:47:58.158Z,9.30
2023-01-31T00:50:49.775Z,8.90
2023-01-31T00:53:24.082Z,8.30
2023-01-31T00:55:56.568Z,8.60
2023-01-31T00:58:35.848Z,9.00
2023-01-31T01:01:11.639Z,9.10
2023-01-31T01:04:03.702Z,7.90
2023-01-31T01:06:43.274Z,8.40
2023-01-31T01:09:19.192Z,8.00
2023-01-31T01:11:59.588Z,6.30
2023-01-31T01:14:30.357Z,8.00
2023-01-31T01:17:02.558Z,8.10
2023-01-31T01:19:54.964Z,7.80
2023-01-31T01:22:46.401Z,7.60
2023-01-31T01:25:30.382Z,8.50
2023-01-31T01:28:06.672Z,8.60
2023-01-31T01:30:46.419Z,7.70
2023-01-31T01:33:38.469Z,7.20
2023-01-31T01:36:13.691Z,7.70
2023-01-31T01:38:47.893Z,9.70
2023-01-31T01:41:23.640Z,6.60
2023-01-31T01:43:59.338Z,7.70
2023-01-31T01:46:36.156Z,7.80
2023-01-31T01:49:20.691Z,6.50
2023-01-31T01:51:53.347Z,7.30
2023-01-31T01:54:28.554Z,7.40
2023-01-31T01:57:04.505Z,6.90
2023-01-31T01:59:36.562Z,7.70
2023-01-31T02:02:28.561Z,6.20
2023-01-31T02:04:59.674Z,6.70
2023-01-31T02:07:31.338Z,6.20
2023-01-31T02:10:15.254Z,5.30
2023-01-31T02:13:06.887Z,6.00
2023-01-31T02:15:51.204Z,5.80
2023-01-31T02:18:23.387Z,7.00
2023-01-31T02:21:14.551Z,6.60
2023-01-31T02:24:12.044Z,6.80
2023-01-31T02:26:56.386Z,6.30
2023-01-31T02:29:36.132Z,5.80
2023-01-31T02:32:36.714Z,4.90
2023-01-31T02:35:20.600Z,5.10
2023-01-31T02:37:58.778Z,4.40
2023-01-31T02:40:40.760Z,4.80
2023-01-31T02:43:57.961Z,6.20
2023-01-31T02:46:36.960Z,5.30
2023-01-31T02:49:12.075Z,5.60
2023-01-31T02:52:18.233Z,6.40
2023-01-31T02:55:40.236Z,6.20
2023-01-31T02:58:21.866Z,7.70
2023-01-31T03:00:57.000Z,8.30
2023-01-31T03:03:33.091Z,7.20
2023-01-31T03:06:36.616Z,7.60
2023-01-31T03:09:26.359Z,7.00
2023-01-31T03:12:12.471Z,7.30
2023-01-31T03:14:47.104Z,8.10
2023-01-31T03:17:52.066Z,7.70
2023-01-31T03:20:45.998Z,7.50
2023-01-31T03:23:20.303Z,6.10
2023-01-31T03:26:15.893Z,7.50
2023-01-31T03:28:48.225Z,5.90
2023-01-31T03:31:25.852Z,6.60
2023-01-31T03:34:02.441Z,7.20
2023-01-31T03:36:47.351Z,6.70
2023-01-31T03:39:44.347Z,4.10
2023-01-31T03:42:23.117Z,8.10
2023-01-31T03:44:57.757Z,7.00
2023-01-31T03:47:33.604Z,6.10
2023-01-31T03:50:08.167Z,5.90
2023-01-31T03:52:45.259Z,5.30
2023-01-31T03:55:22.294Z,6.00
2023-01-31T03:57:55.774Z,6.20
2023-01-31T04:00:38.192Z,6.40
2023-01-31T04:03:12.947Z,6.50
2023-01-31T04:05:45.479Z,5.60
2023-01-31T04:08:19.456Z,5.90
2023-01-31T04:10:55.948Z,6.00
2023-01-31T04:13:46.955Z,5.20
2023-01-31T04:16:20.462Z,4.90
2023-01-31T04:18:52.465Z,4.10
2023-01-31T04:21:24.997Z,5.20
2023-01-31T04:24:16.131Z,6.30
2023-01-31T04:26:47.324Z,4.80
2023-01-31T04:29:34.602Z,4.40
2023-01-31T04:32:25.985Z,4.80
2023-01-31T04:34:56.992Z,4.50
2023-01-31T04:37:28.380Z,4.70
2023-01-31T04:39:59.410Z,4.10
2023-01-31T04:42:31.874Z,3.90
2023-01-31T04:45:02.940Z,4.40
2023-01-31T04:47:33.995Z,3.50
2023-01-31T04:50:05.025Z,3.80
2023-01-31T04:52:36.521Z,3.80
2023-01-31T04:55:08.260Z,2.30
2023-01-31T04:57:39.449Z,4.10
2023-01-31T05:00:11.802Z,3.10
2023-01-31T05:02:42.698Z,3.80
2023-01-31T05:05:14.427Z,3.10
2023-01-31T05:07:45.688Z,2.80
2023-01-31T05:10:16.683Z,2.80
2023-01-31T05:12:47.740Z,3.00
2023-01-31T05:15:19.270Z,3.10
2023-01-31T05:17:54.538Z,2.90
2023-01-31T05:20:25.950Z,3.40
2023-01-31T05:22:56.725Z,3.80
2023-01-31T05:25:27.899Z,5.40
2023-01-31T05:27:59.065Z,4.50
2023-01-31T05:30:31.343Z,3.00
2023-01-31T05:33:02.797Z,4.00
2023-01-31T05:35:34.284Z,4.00
2023-01-31T05:38:05.185Z,3.50
2023-01-31T05:40:36.204Z,3.90
2023-01-31T05:43:07.050Z,4.30
2023-01-31T05:45:38.010Z,3.80
2023-01-31T05:48:11.182Z,4.20
2023-01-31T05:50:42.020Z,4.40
2023-01-31T05:53:13.112Z,4.20
2023-01-31T05:55:47.173Z,3.40
2023-01-31T05:58:18.265Z,3.40
2023-01-31T06:00:51.845Z,2.90
2023-01-31T06:03:25.769Z,5.30
2023-01-31T06:05:56.973Z,4.00
2023-01-31T06:08:27.847Z,2.90
2023-01-31T06:11:05.070Z,3.50
2023-01-31T06:13:36.260Z,3.90
2023-01-31T06:16:10.215Z,3.10
2023-01-31T06:18:41.155Z,3.60
2023-01-31T06:21:12.465Z,3.70
2023-01-31T06:23:46.276Z,4.00
2023-01-31T06:26:17.283Z,3.10
2023-01-31T06:29:09.471Z,2.50
2023-01-31T06:31:49.169Z,2.20
2023-01-31T06:34:40.395Z,3.00
2023-01-31T06:37:14.317Z,2.90
2023-01-31T06:39:45.286Z,4.00
2023-01-31T06:42:18.871Z,3.40
2023-01-31T06:44:59.992Z,4.50
2023-01-31T06:47:30.988Z,3.90
2023-01-31T06:50:02.003Z,4.60
2023-01-31T06:52:36.544Z,5.70
2023-01-31T06:55:08.151Z,3.40
2023-01-31T06:57:39.180Z,5.60
2023-01-31T07:00:11.352Z,4.70
2023-01-31T07:02:42.384Z,4.30
2023-01-31T07:05:13.721Z,5.00
2023-01-31T07:07:44.859Z,5.20
2023-01-31T07:10:16.485Z,4.80
2023-01-31T07:12:53.406Z,4.60
2023-01-31T07:15:27.266Z,4.80
2023-01-31T07:18:03.088Z,6.10
2023-01-31T07:20:35.205Z,4.90
2023-01-31T07:23:06.030Z,5.00
2023-01-31T07:25:37.124Z,5.50
2023-01-31T07:28:13.194Z,6.70
2023-01-31T07:30:46.419Z,7.20
2023-01-31T07:33:18.607Z,6.50
2023-01-31T07:35:49.765Z,5.90
2023-01-31T07:38:26.234Z,5.70
2023-01-31T07:41:01.981Z,6.60
2023-01-31T07:43:33.527Z,5.90
2023-01-31T07:46:11.206Z,4.70
2023-01-31T07:48:43.290Z,6.40
2023-01-31T07:51:14.263Z,6.00
2023-01-31T07:53:48.263Z,5.50
2023-01-31T07:56:20.461Z,5.70
2023-01-31T07:58:52.192Z,5.80
2023-01-31T08:01:43.931Z,5.10
2023-01-31T08:04:21.740Z,6.10
2023-01-31T08:06:56.328Z,6.40
2023-01-31T08:12:10.475Z,6.80
2023-01-31T08:14:41.328Z,5.10
2023-01-31T08:17:12.768Z,5.40
2023-01-31T08:19:44.855Z,5.80
2023-01-31T08:22:16.136Z,6.30
2023-01-31T08:24:47.277Z,6.30
2023-01-31T08:27:18.604Z,5.60
2023-01-31T08:29:49.673Z,5.50
2023-01-31T08:32:42.415Z,6.60
2023-01-31T08:35:15.730Z,6.40
2023-01-31T08:37:46.882Z,7.00
2023-01-31T08:40:18.218Z,6.50
2023-01-31T08:42:56.404Z,5.30
2023-01-31T08:45:36.594Z,6.10
2023-01-31T08:48:07.639Z,5.50
2023-01-31T08:50:40.519Z,6.30
2023-01-31T08:55:41.109Z,6.70
2023-01-31T08:58:11.819Z,8.30
2023-01-31T09:00:43.091Z,7.10
2023-01-31T09:03:17.110Z,6.00
2023-01-31T09:05:48.866Z,6.60
2023-01-31T09:08:19.434Z,7.50
2023-01-31T09:10:55.034Z,7.50
2023-01-31T09:13:25.845Z,7.50
2023-01-31T09:16:01.123Z,9.40
2023-01-31T09:18:32.200Z,6.90
2023-01-31T09:21:06.574Z,7.10
2023-01-31T09:23:42.530Z,8.50
2023-01-31T09:28:45.751Z,6.70
2023-01-31T09:31:18.440Z,8.90
2023-01-31T09:33:49.494Z,7.80
2023-01-31T09:36:22.501Z,8.00
2023-01-31T09:38:57.150Z,6.40
2023-01-31T09:41:29.943Z,6.30
2023-01-31T09:44:02.962Z,8.10
2023-01-31T09:46:57.498Z,8.20
2023-01-31T09:49:30.828Z,7.50
2023-01-31T09:54:41.202Z,7.50
2023-01-31T09:57:19.609Z,10.20
2023-01-31T09:59:54.129Z,6.70
2023-01-31T10:02:34.288Z,7.30
2023-01-31T10:05:18.670Z,7.80
2023-01-31T10:07:52.475Z,7.40
2023-01-31T10:10:29.049Z,7.10
2023-01-31T10:13:01.628Z,7.10
2023-01-31T10:15:34.094Z,7.60
2023-01-31T10:18:07.531Z,5.80
2023-01-31T10:20:40.073Z,7.20
2023-01-31T10:23:17.584Z,8.30
2023-01-31T10:25:52.458Z,6.80
2023-01-31T10:28:25.996Z,7.10
2023-01-31T10:31:00.083Z,7.70
2023-01-31T10:33:35.020Z,8.10
2023-01-31T10:36:10.931Z,6.40
2023-01-31T10:38:47.395Z,8.10
2023-01-31T10:41:25.355Z,6.50
2023-01-31T10:44:01.088Z,5.70
2023-01-31T10:46:32.869Z,9.20
2023-01-31T10:49:12.669Z,6.40
2023-01-31T10:51:51.229Z,6.70
2023-01-31T10:54:29.263Z,6.50
2023-01-31T10:57:03.043Z,7.40
2023-01-31T10:59:35.283Z,4.90
2023-01-31T11:02:06.806Z,6.50
2023-01-31T11:04:40.304Z,5.60
2023-01-31T11:07:19.263Z,7.50
2023-01-31T11:09:51.733Z,7.80
2023-01-31T11:12:41.988Z,5.80
2023-01-31T11:15:17.988Z,5.90
2023-01-31T11:17:49.695Z,6.80
2023-01-31T11:20:28.868Z,6.10
2023-01-31T11:23:03.726Z,5.60
2023-01-31T11:25:37.112Z,6.40
2023-01-31T11:28:21.996Z,6.10
2023-01-31T11:30:56.023Z,6.30
2023-01-31T11:33:45.345Z,6.30
2023-01-31T11:36:17.234Z,6.00
2023-01-31T11:38:48.431Z,7.50
2023-01-31T11:41:35.866Z,7.30
2023-01-31T11:44:23.432Z,5.60
2023-01-31T11:46:55.692Z,6.70
2023-01-31T11:49:34.786Z,7.40
2023-01-31T11:52:13.913Z,6.00
2023-01-31T11:55:08.024Z,5.40
2023-01-31T11:57:39.793Z,5.90
2023-01-31T12:00:22.153Z,5.90
2023-01-31T12:02:55.188Z,4.40
2023-01-31T12:05:31.868Z,4.50
2023-01-31T12:08:02.799Z,4.50
2023-01-31T12:10:35.259Z,4.90
2023-01-31T12:13:18.822Z,5.20
2023-01-31T12:15:52.838Z,5.00
2023-01-31T12:18:28.592Z,5.20
2023-01-31T12:21:03.706Z,4.20
2023-01-31T12:23:39.956Z,5.20
2023-01-31T12:26:15.418Z,3.60
2023-01-31T12:28:59.658Z,4.10
2023-01-31T12:31:46.151Z,4.80
2023-01-31T12:34:28.092Z,5.00
2023-01-31T12:37:12.707Z,4.50
2023-01-31T12:40:03.248Z,3.50
2023-01-31T12:42:52.201Z,4.20
2023-01-31T12:45:35.431Z,5.90
2023-01-31T12:48:29.278Z,5.50
2023-01-31T12:51:10.051Z,5.10
2023-01-31T12:53:57.514Z,5.30
2023-01-31T12:56:41.875Z,5.10
2023-01-31T12:59:29.418Z,4.40
2023-01-31T13:02:04.287Z,3.70
2023-01-31T13:04:39.876Z,4.40
2023-01-31T13:07:25.053Z,4.60
2023-01-31T13:09:59.384Z,4.00
2023-01-31T13:12:32.916Z,5.10
2023-01-31T13:17:53.168Z,6.00
2023-01-31T13:20:30.929Z,3.80
2023-01-31T13:23:05.370Z,4.20
2023-01-31T13:25:51.644Z,4.40
2023-01-31T13:28:24.574Z,6.10
2023-01-31T13:31:07.089Z,5.20
2023-01-31T13:36:29.465Z,4.80
2023-01-31T13:39:14.014Z,6.00
2023-01-31T13:41:46.029Z,5.90
2023-01-31T13:44:52.217Z,6.10
2023-01-31T13:49:45.921Z,5.80
2023-01-31T13:52:19.167Z,6.20
2023-01-31T13:54:59.897Z,6.50
2023-01-31T13:57:33.564Z,6.50
2023-01-31T14:00:10.437Z,6.80
2023-01-31T14:03:09.975Z,5.40
2023-01-31T14:06:02.998Z,7.60
2023-01-31T14:08:41.357Z,7.60
2023-01-31T14:11:36.378Z,7.50
2023-01-31T14:14:18.526Z,7.10
2023-01-31T14:17:00.441Z,6.40
2023-01-31T14:19:55.658Z,8.40
2023-01-31T14:22:28.121Z,8.80
2023-01-31T14:25:02.946Z,8.20
2023-01-31T14:27:38.303Z,7.10
2023-01-31T14:30:30.092Z,9.10
2023-01-31T14:33:25.641Z,8.00
2023-01-31T14:36:13.768Z,7.10
2023-01-31T14:39:21.003Z,9.80
2023-01-31T14:42:05.234Z,7.70
2023-01-31T14:44:43.479Z,7.60
2023-01-31T14:47:53.751Z,7.60
2023-01-31T15:29:22.412Z,8.10
2023-01-31T15:31:55.216Z,7.20
2023-01-31T15:34:29.306Z,8.50
2023-01-31T15:37:05.489Z,9.00
2023-01-31T15:39:49.376Z,9.00
2023-01-31T15:42:25.576Z,8.60
2023-01-31T15:45:09.756Z,9.00
2023-01-31T15:47:40.778Z,8.80
2023-01-31T15:50:21.822Z,9.90
2023-01-31T15:52:52.618Z,11.10
2023-01-31T15:55:24.248Z,11.40
2023-01-31T15:57:58.043Z,10.30
2023-01-31T16:00:31.271Z,10.30
2023-01-31T16:03:08.470Z,11.30
2023-01-31T16:05:40.527Z,11.30
2023-01-31T16:08:29.565Z,10.90
2023-01-31T16:11:01.904Z,12.00
2023-01-31T16:13:33.273Z,12.30
2023-01-31T16:16:10.807Z,11.20
2023-01-31T16:18:43.087Z,10.70
2023-01-31T16:21:24.987Z,11.70
2023-01-31T16:24:03.477Z,12.40
2023-01-31T16:26:36.301Z,13.10
2023-01-31T16:29:10.473Z,13.00
2023-01-31T16:31:48.624Z,11.80
2023-01-31T16:34:25.444Z,12.10
2023-01-31T16:36:58.213Z,12.40
2023-01-31T16:39:40.364Z,12.10
2023-01-31T16:42:27.749Z,10.20
2023-01-31T16:44:58.987Z,11.20
2023-01-31T16:47:35.368Z,11.10
2023-01-31T16:50:36.819Z,10.90
2023-01-31T16:53:18.791Z,8.80
2023-01-31T16:56:10.221Z,9.10
2023-01-31T16:58:48.400Z,10.70
2023-01-31T17:01:27.920Z,8.50
2023-01-31T17:04:15.649Z,9.30
2023-01-31T17:07:03.633Z,9.80
2023-01-31T17:09:59.764Z,10.80
2023-01-31T17:12:35.009Z,9.10
2023-01-31T17:15:15.314Z,9.00
2023-01-31T17:17:46.647Z,9.60
2023-01-31T17:20:23.871Z,10.50
2023-01-31T17:23:03.117Z,10.60
2023-01-31T17:25:39.133Z,11.20
2023-01-31T17:28:11.074Z,10.30
2023-01-31T17:30:57.546Z,11.00
2023-01-31T17:33:28.927Z,10.80
2023-01-31T17:36:00.500Z,10.80
2023-01-31T17:38:41.450Z,9.70
2023-01-31T17:41:15.188Z,11.80
2023-01-31T17:43:46.622Z,10.10
2023-01-31T17:46:18.484Z,11.50
2023-01-31T17:48:50.066Z,11.00
2023-01-31T17:51:20.922Z,12.10
2023-01-31T17:54:12.459Z,12.20
2023-01-31T17:56:47.518Z,11.90
2023-01-31T17:59:26.841Z,12.40
2023-01-31T18:01:59.673Z,12.80
2023-01-31T18:04:31.068Z,12.90
2023-01-31T18:07:01.965Z,13.60
2023-01-31T18:09:33.554Z,13.30
2023-01-31T18:12:07.664Z,12.90
2023-01-31T18:14:43.947Z,13.00
2023-01-31T18:17:26.565Z,12.30
2023-01-31T18:19:57.525Z,13.10
2023-01-31T18:22:28.598Z,12.70
2023-01-31T18:25:00.545Z,12.60
2023-01-31T18:27:31.366Z,11.80
2023-01-31T18:30:05.759Z,10.40
2023-01-31T18:32:36.893Z,11.50
2023-01-31T18:35:13.423Z,11.20
2023-01-31T18:37:49.745Z,10.50
2023-01-31T18:40:22.730Z,11.30
2023-01-31T18:42:54.279Z,10.00
2023-01-31T18:45:28.170Z,9.80
2023-01-31T18:47:59.366Z,10.60
2023-01-31T18:50:33.438Z,8.50
2023-01-31T18:53:06.683Z,8.30
2023-01-31T18:55:37.692Z,8.40
2023-01-31T18:58:12.290Z,8.20
2023-01-31T19:00:46.496Z,8.40
2023-01-31T19:03:22.398Z,8.60
2023-01-31T19:08:23.323Z,7.70
2023-01-31T19:10:54.167Z,8.00
2023-01-31T19:13:28.264Z,9.30
2023-01-31T19:16:01.959Z,9.00
2023-01-31T19:18:33.541Z,9.00
2023-01-31T19:21:04.963Z,8.60
2023-01-31T19:23:37.963Z,7.40
2023-01-31T19:26:17.569Z,7.70
2023-01-31T19:28:49.408Z,9.10
2023-01-31T19:31:21.846Z,8.00
2023-01-31T19:33:54.046Z,9.20
2023-01-31T19:36:25.751Z,8.30
2023-01-31T19:39:00.806Z,8.70
2023-01-31T19:41:39.730Z,8.80
2023-01-31T19:44:13.870Z,7.80
2023-01-31T19:46:46.494Z,7.70
2023-01-31T19:49:36.596Z,10.60
2023-01-31T19:52:09.936Z,8.10
2023-01-31T19:54:41.938Z,7.50
2023-01-31T19:57:25.528Z,7.70
2023-01-31T19:59:58.779Z,6.80
2023-01-31T20:02:29.821Z,9.30
2023-01-31T20:05:01.432Z,7.10
2023-01-31T20:07:45.646Z,7.70
2023-01-31T20:10:17.755Z,8.80
2023-01-31T20:12:51.058Z,8.10
2023-01-31T20:15:23.046Z,7.60
2023-01-31T20:17:54.616Z,8.30
2023-01-31T20:20:28.174Z,8.30
2023-01-31T20:22:58.962Z,8.50
2023-01-31T20:25:34.406Z,7.00
2023-01-31T20:28:07.451Z,9.20
2023-01-31T20:30:39.180Z,7.20
2023-01-31T20:33:10.015Z,5.90
2023-01-31T20:35:41.821Z,6.00
2023-01-31T20:38:15.402Z,6.10
2023-01-31T20:40:51.966Z,6.80
2023-01-31T20:43:31.852Z,6.50
2023-01-31T20:46:09.689Z,6.10
2023-01-31T20:48:43.782Z,6.50
2023-01-31T20:51:15.665Z,4.90
2023-01-31T20:53:47.756Z,5.40
2023-01-31T20:56:19.203Z,6.00
2023-01-31T20:58:50.113Z,6.10
2023-01-31T21:01:21.435Z,6.00
2023-01-31T21:03:53.081Z,5.70
2023-01-31T21:06:24.488Z,5.30
2023-01-31T21:08:55.433Z,5.40
2023-01-31T21:11:26.881Z,5.20
2023-01-31T21:13:57.583Z,6.80
2023-01-31T21:16:28.948Z,5.70
2023-01-31T21:18:59.914Z,5.50
2023-01-31T21:21:31.253Z,5.50
2023-01-31T21:24:05.390Z,5.80
2023-01-31T21:26:57.319Z,5.00
2023-01-31T21:29:28.045Z,4.80
2023-01-31T21:32:00.848Z,5.20
2023-01-31T21:34:31.580Z,5.70
2023-01-31T21:37:04.003Z,4.60
2023-01-31T21:39:34.598Z,5.80
2023-01-31T21:42:20.113Z,4.70
2023-01-31T21:44:53.323Z,5.50
2023-01-31T21:47:24.850Z,5.00
2023-01-31T21:49:55.857Z,4.90
2023-01-31T21:52:27.580Z,5.30
2023-01-31T21:54:58.305Z,4.80
2023-01-31T21:57:29.834Z,4.40
2023-01-31T22:00:00.470Z,5.40
2023-01-31T22:02:31.935Z,4.50
2023-01-31T22:05:02.762Z,4.80
2023-01-31T22:07:34.470Z,4.40
2023-01-31T22:10:05.575Z,5.40
2023-01-31T22:12:38.147Z,5.00
2023-01-31T22:15:11.220Z,4.40
2023-01-31T22:17:42.856Z,6.20
2023-01-31T22:20:15.939Z,5.00
2023-01-31T22:22:48.877Z,4.50
2023-01-31T22:25:19.517Z,5.10
2023-01-31T22:27:52.450Z,4.80
2023-01-31T22:30:23.325Z,4.40
2023-01-31T22:32:56.719Z,3.90
2023-01-31T22:35:27.825Z,5.30
2023-01-31T22:37:59.173Z,5.00
2023-01-31T22:40:29.811Z,4.70
2023-01-31T22:43:01.166Z,4.60
2023-01-31T22:45:31.989Z,5.10
2023-01-31T22:48:03.071Z,4.60
2023-01-31T22:50:33.984Z,5.20
2023-01-31T22:53:05.425Z,5.00
2023-01-31T22:55:39.943Z,4.80
2023-01-31T22:58:16.772Z,4.30
2023-01-31T23:00:47.969Z,4.80
2023-01-31T23:03:19.463Z,5.10
2023-01-31T23:05:50.110Z,5.90
2023-01-31T23:08:21.898Z,4.90
2023-01-31T23:10:52.579Z,4.30
2023-01-31T23:13:24.455Z,4.60
2023-01-31T23:15:55.479Z,4.50
2023-01-31T23:18:26.775Z,5.30
2023-01-31T23:21:07.681Z,4.80
2023-01-31T23:23:39.617Z,5.20
2023-01-31T23:26:10.761Z,5.90
2023-01-31T23:28:42.308Z,5.30
2023-01-31T23:31:13.236Z,4.90
2023-01-31T23:33:45.248Z,4.80
2023-01-31T23:36:15.945Z,4.70
2023-01-31T23:38:49.942Z,5.10
2023-01-31T23:41:20.576Z,5.00
2023-01-31T23:43:57.668Z,5.60
2023-01-31T23:46:28.366Z,4.80
2023-01-31T23:48:59.644Z,4.50
2023-01-31T23:51:31.462Z,6.60
2023-01-31T23:54:02.644Z,5.30
2023-01-31T23:56:33.627Z,4.20
2023-01-31T23:59:05.278Z,4.70
